Terminal Aerodrome Forecast
Issued by NWS Wilmington, OH

Current Version | Previous Version | Graphics & Text | Print | Product List | Glossary On
Versions: 1 2 3 4 5 6 7 8 9 10 11 12 13 14 15
000
FTUS41 KILN 232339
TAFCMH
TAF
KCMH 232339Z 2400/2424 14007KT P6SM BKN100
     FM240800 17012KT P6SM SCT080 OVC150 WS020/21040KT
     FM241400 19012G25KT P6SM BKN040
     FM242300 21013KT P6SM BKN040=

USA.gov is the U.S. government's official web portal to all federal, state and local government web resources and services.